Erie, Pennsylvania
Current Conditions -  °F | °C
As of 1:51 PM on Friday 21 Nov 2014 (Local Time) from KERI Reporting Station
Overcast Overcast  
Wind Chill: 16°   Ceiling: 3500
Heat Index: 25°   Visibility: 10mi
Dew Point: 12°   Wind: 9mph
Humidity: 58%   Direction: 230°SW
Pressure: 30.44"   Gusts: NA
Location:  42.13°N, 80.08°W
Report Text: KERI 211851Z 23008KT 10SM OVC035 M04/M11 A3044 RMK AO2 SLP321 T10391111
Loading
Personal Weather Stations






























Interactive Weather Map New forecast layout! Learn more

10-Day Weather Forecast

Advertisements
Track Severe Weather on mobile